AIRPORT ID: 7G9

DATE: 2024-05-27 ZULU TIME: 21.55 LOCAL TIME: 16.55


METAR K7G9 272155Z AUTO 28016G26KT 10SM 22/08 A2986

ALTIMETER: A2986 Q1011

DENSITY ALT: 2400 Ft

WIND DIRECT: 290

WIND SPEED: 16 Gust

WIND CONDITIONS:

VISIBILTY: 10SM 9999M

TEMPERATURE: 72 F 22 C

DEW POINT: 47 F 8 C

HUMID: 41%

LCL: Above 5,000 feet

RADIO CHECK: 0

ADVISARIES: 0

GREETINGS: 0

CONVERSATIONS: 0